createdAt,value
2022-12-18T00:02:16.995Z,131.30
2022-12-18T00:04:44.034Z,119.38
2022-12-18T00:07:10.988Z,127.63
2022-12-18T00:09:40.261Z,124.35
2022-12-18T00:14:43.358Z,126.55
2022-12-18T00:17:10.328Z,108.38
2022-12-18T00:19:37.182Z,125.30
2022-12-18T00:22:04.116Z,82.78
2022-12-18T00:24:31.007Z,109.07
2022-12-18T00:26:57.858Z,64.20
2022-12-18T00:29:24.983Z,94.95
2022-12-18T00:31:51.905Z,89.97
2022-12-18T00:34:18.838Z,83.07
2022-12-18T00:36:48.316Z,88.80
2022-12-18T00:39:15.180Z,89.15
2022-12-18T00:42:00.617Z,91.90
2022-12-18T00:44:27.454Z,85.93
2022-12-18T00:46:54.306Z,80.78
2022-12-18T00:49:21.976Z,57.45
2022-12-18T00:51:49.782Z,86.40
2022-12-18T00:54:17.823Z,104.20
2022-12-18T00:56:49.429Z,91.50
2022-12-18T00:59:17.758Z,96.60
2022-12-18T01:01:45.028Z,91.25
2022-12-18T01:04:11.992Z,90.10
2022-12-18T01:06:38.839Z,76.82
2022-12-18T01:09:07.442Z,74.55
2022-12-18T01:11:34.370Z,66.35
2022-12-18T01:14:01.712Z,82.80
2022-12-18T01:16:28.655Z,67.30
2022-12-18T01:18:55.929Z,71.10
2022-12-18T01:21:24.174Z,72.57
2022-12-18T01:23:56.131Z,52.90
2022-12-18T01:26:23.462Z,70.03
2022-12-18T01:28:50.476Z,86.15
2022-12-18T01:31:19.698Z,70.75
2022-12-18T01:33:52.157Z,76.72
2022-12-18T01:36:28.659Z,65.03
2022-12-18T01:38:56.325Z,61.00
2022-12-18T01:41:26.214Z,65.93
2022-12-18T01:43:54.849Z,65.43
2022-12-18T01:46:23.563Z,62.35
2022-12-18T01:48:57.472Z,65.53
2022-12-18T01:51:26.721Z,73.10
2022-12-18T01:53:53.574Z,80.05
2022-12-18T01:56:22.144Z,74.10
2022-12-18T01:59:03.764Z,71.15
2022-12-18T02:01:33.000Z,74.00
2022-12-18T02:04:32.267Z,72.72
2022-12-18T02:07:08.218Z,70.78
2022-12-18T02:09:42.612Z,66.60
2022-12-18T02:12:20.551Z,63.35
2022-12-18T02:15:10.871Z,82.47
2022-12-18T02:18:01.335Z,60.67
2022-12-18T02:20:36.164Z,79.85
2022-12-18T02:23:29.655Z,73.57
2022-12-18T02:26:08.579Z,63.13
2022-12-18T02:28:42.565Z,79.93
2022-12-18T02:31:14.973Z,79.18
2022-12-18T02:33:43.329Z,62.95
2022-12-18T02:36:11.953Z,61.28
2022-12-18T02:38:39.973Z,65.43
2022-12-18T02:41:07.603Z,70.95
2022-12-18T02:43:34.516Z,66.38
2022-12-18T02:46:22.896Z,75.35
2022-12-18T02:48:51.614Z,57.85
2022-12-18T02:51:23.898Z,68.05
2022-12-18T02:54:01.404Z,66.07
2022-12-18T02:56:50.340Z,67.40
2022-12-18T02:59:29.711Z,65.63
2022-12-18T03:02:04.391Z,68.65
2022-12-18T03:04:42.472Z,75.85
2022-12-18T03:07:16.477Z,66.80
2022-12-18T03:09:47.638Z,71.05
2022-12-18T03:12:28.806Z,78.10
2022-12-18T03:15:18.175Z,64.90
2022-12-18T03:17:52.175Z,55.58
2022-12-18T03:20:22.765Z,69.82
2022-12-18T03:23:00.892Z,68.00
2022-12-18T03:25:29.148Z,65.28
2022-12-18T03:27:59.849Z,68.35
2022-12-18T03:30:29.629Z,71.97
2022-12-18T03:33:10.150Z,63.90
2022-12-18T03:35:40.873Z,65.03
2022-12-18T03:38:08.802Z,68.28
2022-12-18T03:40:44.274Z,59.55
2022-12-18T03:43:21.500Z,63.08
2022-12-18T03:45:55.371Z,56.17
2022-12-18T03:48:33.830Z,54.63
2022-12-18T03:51:09.064Z,56.47
2022-12-18T03:53:50.978Z,65.90
2022-12-18T03:56:19.985Z,69.75
2022-12-18T03:58:49.003Z,63.08
2022-12-18T04:01:18.484Z,70.18
2022-12-18T04:03:49.272Z,72.68
2022-12-18T04:06:17.435Z,70.65
2022-12-18T04:08:45.227Z,76.38
2022-12-18T04:11:12.596Z,56.75
2022-12-18T04:13:40.186Z,75.28
2022-12-18T04:16:07.545Z,82.43
2022-12-18T04:18:35.207Z,75.95
2022-12-18T04:21:02.299Z,69.75
2022-12-18T04:23:29.421Z,77.43
2022-12-18T04:25:56.351Z,70.07
2022-12-18T04:28:23.206Z,72.35
2022-12-18T04:30:50.214Z,72.28
2022-12-18T04:33:17.231Z,72.18
2022-12-18T04:35:44.491Z,61.95
2022-12-18T04:38:11.502Z,57.95
2022-12-18T04:40:39.285Z,66.90
2022-12-18T04:43:08.170Z,50.50
2022-12-18T04:45:35.268Z,63.88
2022-12-18T04:48:03.542Z,48.30
2022-12-18T04:50:31.020Z,45.80
2022-12-18T04:52:58.134Z,52.45
2022-12-18T04:55:26.626Z,49.55
2022-12-18T04:57:54.007Z,47.00
2022-12-18T05:00:21.860Z,51.15
2022-12-18T05:02:49.210Z,48.00
2022-12-18T05:05:16.232Z,51.38
2022-12-18T05:07:43.085Z,46.83
2022-12-18T05:10:10.758Z,47.13
2022-12-18T05:12:57.639Z,44.70
2022-12-18T05:15:25.111Z,48.03
2022-12-18T05:17:51.966Z,43.38
2022-12-18T05:20:19.317Z,40.03
2022-12-18T05:22:46.276Z,43.15
2022-12-18T05:25:13.196Z,42.05
2022-12-18T05:27:40.104Z,41.72
2022-12-18T05:30:07.614Z,36.58
2022-12-18T05:32:34.488Z,42.90
2022-12-18T05:35:01.358Z,42.47
2022-12-18T05:37:28.319Z,43.83
2022-12-18T05:39:55.499Z,46.92
2022-12-18T05:42:22.373Z,40.97
2022-12-18T05:44:49.313Z,43.10
2022-12-18T05:47:16.169Z,46.17
2022-12-18T05:49:43.143Z,43.80
2022-12-18T05:52:10.659Z,45.15
2022-12-18T05:54:37.514Z,45.30
2022-12-18T05:57:04.423Z,39.28
2022-12-18T05:59:31.395Z,40.28
2022-12-18T06:01:58.304Z,37.53
2022-12-18T06:04:27.325Z,35.90
2022-12-18T06:06:54.207Z,39.88
2022-12-18T06:09:21.263Z,35.22
2022-12-18T06:11:48.065Z,38.08
2022-12-18T06:14:15.357Z,39.00
2022-12-18T06:16:42.219Z,43.15
2022-12-18T06:19:09.083Z,40.95
2022-12-18T06:21:36.184Z,47.13
2022-12-18T06:24:03.249Z,44.85
2022-12-18T06:26:30.106Z,49.72
2022-12-18T06:28:57.337Z,48.90
2022-12-18T06:31:25.171Z,40.13
2022-12-18T06:33:52.549Z,42.33
2022-12-18T06:36:19.516Z,44.60
2022-12-18T06:38:46.433Z,43.03
2022-12-18T06:41:22.164Z,45.83
2022-12-18T06:43:49.128Z,51.58
2022-12-18T06:46:16.014Z,55.25
2022-12-18T06:48:42.995Z,54.70
2022-12-18T06:51:09.900Z,52.97
2022-12-18T06:53:36.976Z,56.15
2022-12-18T06:56:10.635Z,55.10
2022-12-18T06:58:39.218Z,46.92
2022-12-18T07:01:09.129Z,52.00
2022-12-18T07:03:36.268Z,53.08
2022-12-18T07:06:03.377Z,47.47
2022-12-18T07:08:31.342Z,52.55
2022-12-18T07:10:58.382Z,53.63
2022-12-18T07:13:25.470Z,50.90
2022-12-18T07:15:52.677Z,48.00
2022-12-18T07:18:19.519Z,54.85
2022-12-18T07:20:46.394Z,50.50
2022-12-18T07:23:15.068Z,50.85
2022-12-18T07:25:41.998Z,53.10
2022-12-18T07:28:12.789Z,50.05
2022-12-18T07:30:42.602Z,55.55
2022-12-18T07:33:09.564Z,54.55
2022-12-18T07:35:36.557Z,52.00
2022-12-18T07:38:03.458Z,50.63
2022-12-18T07:40:30.322Z,54.03
2022-12-18T07:42:57.253Z,65.35
2022-12-18T07:45:24.156Z,60.45
2022-12-18T07:47:51.002Z,53.28
2022-12-18T07:50:17.873Z,47.85
2022-12-18T07:52:44.749Z,59.05
2022-12-18T07:55:11.627Z,52.80
2022-12-18T07:57:57.766Z,53.40
2022-12-18T08:00:25.454Z,51.75
2022-12-18T08:02:52.525Z,53.03
2022-12-18T08:05:19.841Z,48.05
2022-12-18T08:07:46.791Z,51.53
2022-12-18T08:10:14.361Z,48.85
2022-12-18T08:12:41.282Z,55.80
2022-12-18T08:15:08.696Z,65.15
2022-12-18T08:17:35.614Z,46.78
2022-12-18T08:20:02.596Z,56.00
2022-12-18T08:22:29.578Z,49.97
2022-12-18T08:24:56.416Z,52.92
2022-12-18T08:27:30.640Z,51.83
2022-12-18T08:29:58.455Z,49.88
2022-12-18T08:32:26.986Z,55.60
2022-12-18T08:34:53.885Z,43.63
2022-12-18T08:37:21.058Z,52.85
2022-12-18T08:39:48.052Z,54.00
2022-12-18T08:42:33.565Z,48.67
2022-12-18T08:45:00.632Z,57.83
2022-12-18T08:47:27.584Z,49.15
2022-12-18T08:49:54.483Z,76.30
2022-12-18T08:52:21.338Z,57.25
2022-12-18T08:54:48.179Z,49.85
2022-12-18T08:57:15.047Z,54.83
2022-12-18T08:59:41.884Z,54.60
2022-12-18T09:02:12.068Z,59.47
2022-12-18T09:04:40.957Z,54.75
2022-12-18T09:07:07.888Z,47.58
2022-12-18T09:09:34.770Z,52.13
2022-12-18T09:12:01.685Z,45.03
2022-12-18T09:14:28.532Z,51.88
2022-12-18T09:16:55.942Z,53.97
2022-12-18T09:19:23.117Z,53.30
2022-12-18T09:21:49.974Z,59.75
2022-12-18T09:24:17.317Z,54.28
2022-12-18T09:26:46.823Z,48.65
2022-12-18T09:29:15.577Z,51.83
2022-12-18T09:31:43.381Z,44.17
2022-12-18T09:34:10.576Z,50.80
2022-12-18T09:36:37.469Z,53.67
2022-12-18T09:39:08.105Z,52.50
2022-12-18T09:41:51.855Z,50.65
2022-12-18T09:44:28.131Z,53.30
2022-12-18T09:47:07.317Z,49.60
2022-12-18T09:49:40.487Z,60.67
2022-12-18T09:52:13.385Z,53.53
2022-12-18T09:57:11.806Z,47.97
2022-12-18T09:59:40.920Z,58.28
2022-12-18T10:02:23.904Z,44.65
2022-12-18T10:08:00.588Z,44.13
2022-12-18T10:10:36.868Z,44.00
2022-12-18T10:13:08.876Z,44.35
2022-12-18T10:16:03.697Z,34.33
2022-12-18T10:18:46.770Z,44.85
2022-12-18T10:21:20.275Z,44.25
2022-12-18T10:24:02.691Z,39.67
2022-12-18T10:26:29.597Z,42.67
2022-12-18T10:29:05.167Z,50.67
2022-12-18T10:31:32.642Z,47.10
2022-12-18T10:33:59.557Z,42.05
2022-12-18T10:36:26.581Z,48.28
2022-12-18T10:38:53.929Z,41.67
2022-12-18T10:41:23.099Z,42.45
2022-12-18T10:44:09.922Z,47.90
2022-12-18T10:46:37.275Z,41.47
2022-12-18T10:49:05.900Z,41.00
2022-12-18T10:51:38.474Z,34.50
2022-12-18T10:54:26.198Z,41.22
2022-12-18T10:57:13.028Z,45.70
2022-12-18T10:59:55.834Z,55.97
2022-12-18T11:02:41.021Z,33.75
2022-12-18T11:05:34.488Z,36.28
2022-12-18T11:10:34.575Z,36.85
2022-12-18T11:13:11.772Z,36.60
2022-12-18T11:15:42.251Z,32.00
2022-12-18T11:18:20.343Z,39.65
2022-12-18T11:21:06.381Z,33.60
2022-12-18T11:23:33.378Z,34.97
2022-12-18T11:26:03.606Z,38.00
2022-12-18T11:28:44.872Z,33.95
2022-12-18T11:31:28.599Z,30.73
2022-12-18T11:34:26.826Z,33.47
2022-12-18T11:36:49.534Z,31.92
2022-12-18T11:39:42.253Z,29.20
2022-12-18T11:42:12.445Z,31.63
2022-12-18T11:44:52.271Z,28.55
2022-12-18T11:47:43.916Z,63.90
2022-12-18T11:50:45.436Z,31.02
2022-12-18T11:53:13.488Z,29.10
2022-12-18T11:56:03.004Z,31.20
2022-12-18T11:58:43.183Z,25.08
2022-12-18T12:01:17.663Z,30.60
2022-12-18T12:04:13.439Z,27.67
2022-12-18T12:07:04.611Z,29.98
2022-12-18T12:10:03.513Z,29.40
2022-12-18T12:12:49.112Z,28.00
2022-12-18T12:15:37.359Z,29.40
2022-12-18T12:18:20.303Z,31.15
2022-12-18T12:20:59.399Z,31.65
2022-12-18T12:23:35.295Z,31.08
2022-12-18T12:26:08.423Z,31.73
2022-12-18T12:28:44.200Z,32.20
2022-12-18T12:31:36.021Z,31.05
2022-12-18T12:34:14.982Z,32.13
2022-12-18T12:36:54.150Z,35.22
2022-12-18T12:39:28.296Z,36.33
2022-12-18T12:42:14.503Z,32.80
2022-12-18T12:44:52.632Z,31.35
2022-12-18T12:47:31.607Z,34.55
2022-12-18T12:50:01.545Z,33.65
2022-12-18T12:52:30.021Z,29.90
2022-12-18T12:54:58.372Z,32.40
2022-12-18T12:57:25.408Z,33.38
2022-12-18T13:00:12.816Z,38.47
2022-12-18T13:03:20.147Z,28.20
2022-12-18T13:05:50.075Z,29.85
2022-12-18T13:08:31.217Z,31.10
2022-12-18T13:11:20.802Z,29.73
2022-12-18T13:13:54.305Z,31.20
2022-12-18T13:16:26.665Z,33.38
2022-12-18T13:19:00.002Z,37.80
2022-12-18T13:21:33.541Z,32.53
2022-12-18T13:24:36.719Z,40.50
2022-12-18T13:27:52.544Z,35.35
2022-12-18T13:30:34.438Z,32.35
2022-12-18T13:33:19.522Z,32.17
2022-12-18T13:35:49.157Z,33.75
2022-12-18T13:38:39.001Z,34.65
2022-12-18T13:41:24.125Z,38.47
2022-12-18T13:43:53.873Z,35.78
2022-12-18T13:46:31.733Z,40.65
2022-12-18T13:49:01.391Z,34.85
2022-12-18T13:51:30.837Z,38.58
2022-12-18T13:54:18.907Z,35.03
2022-12-18T13:56:47.757Z,33.53
2022-12-18T13:59:25.737Z,34.30
2022-12-18T14:02:02.906Z,33.10
2022-12-18T14:04:35.811Z,36.33
2022-12-18T14:07:14.977Z,37.22
2022-12-18T14:09:47.356Z,36.95
2022-12-18T14:12:44.813Z,34.15
2022-12-18T14:15:24.816Z,33.75
2022-12-18T14:17:54.706Z,42.42
2022-12-18T14:20:21.952Z,43.05
2022-12-18T14:22:50.124Z,33.95
2022-12-18T14:25:19.798Z,38.88
2022-12-18T14:28:11.224Z,34.55
2022-12-18T14:30:43.496Z,32.35
2022-12-18T14:33:18.905Z,32.00
2022-12-18T14:36:04.108Z,30.63
2022-12-18T14:38:39.324Z,37.03
2022-12-18T14:41:12.667Z,32.05
2022-12-18T14:43:42.141Z,30.25
2022-12-18T14:46:28.030Z,32.15
2022-12-18T14:48:55.159Z,28.00
2022-12-18T14:51:27.660Z,28.98
2022-12-18T14:54:16.009Z,33.25
2022-12-18T14:56:49.093Z,27.67
2022-12-18T14:59:24.753Z,27.42
2022-12-18T15:02:22.792Z,28.08
2022-12-18T15:05:12.770Z,30.88
2022-12-18T15:07:54.586Z,28.75
2022-12-18T15:10:24.437Z,28.58
2022-12-18T15:12:57.394Z,31.83
2022-12-18T15:18:08.980Z,28.00
2022-12-18T15:20:50.480Z,25.92
2022-12-18T15:23:21.804Z,28.27
2022-12-18T15:25:56.513Z,31.35
2022-12-18T15:28:31.881Z,29.05
2022-12-18T15:31:13.221Z,31.17
2022-12-18T15:33:45.184Z,32.95
2022-12-18T15:36:14.146Z,27.10
2022-12-18T15:38:41.265Z,36.00
2022-12-18T15:41:16.846Z,25.35
2022-12-18T15:43:47.514Z,26.15
2022-12-18T15:46:20.261Z,26.73
2022-12-18T15:48:57.975Z,25.48
2022-12-18T15:51:32.468Z,29.88
2022-12-18T15:54:01.891Z,26.80
2022-12-18T15:56:47.793Z,25.48
2022-12-18T15:59:19.871Z,27.75
2022-12-18T16:01:49.110Z,31.60
2022-12-18T16:04:18.668Z,33.38
2022-12-18T16:07:13.203Z,32.35
2022-12-18T16:09:32.376Z,36.33
2022-12-18T16:11:59.701Z,39.92
2022-12-18T16:14:28.591Z,35.05
2022-12-18T16:17:00.887Z,34.95
2022-12-18T16:19:28.660Z,32.75
2022-12-18T16:21:57.733Z,34.00
2022-12-18T16:24:30.215Z,35.70
2022-12-18T16:27:00.205Z,44.72
2022-12-18T16:29:28.677Z,37.28
2022-12-18T16:32:00.359Z,38.67
2022-12-18T16:34:35.435Z,47.13
2022-12-18T16:37:06.392Z,54.75
2022-12-18T16:39:35.345Z,54.42
2022-12-18T16:42:05.963Z,61.38
2022-12-18T16:44:34.591Z,67.60
2022-12-18T16:47:03.170Z,63.13
2022-12-18T16:49:30.689Z,100.03
2022-12-18T16:51:57.873Z,53.95
2022-12-18T16:54:25.063Z,66.80
2022-12-18T16:56:52.474Z,80.85
2022-12-18T16:59:20.032Z,79.38
2022-12-18T17:01:47.763Z,75.78
2022-12-18T17:04:15.328Z,65.43
2022-12-18T17:06:45.194Z,53.25
2022-12-18T17:09:18.409Z,63.83
2022-12-18T17:11:45.351Z,56.58
2022-12-18T17:14:16.175Z,46.28
2022-12-18T17:16:43.159Z,50.47
2022-12-18T17:19:16.641Z,45.38
2022-12-18T17:21:45.794Z,52.67
2022-12-18T17:24:12.682Z,49.67
2022-12-18T17:26:39.814Z,46.08
2022-12-18T17:29:07.411Z,36.22
2022-12-18T17:31:35.093Z,48.55
2022-12-18T17:34:04.344Z,41.95
2022-12-18T17:36:32.407Z,47.03
2022-12-18T17:39:01.321Z,36.00
2022-12-18T17:41:29.118Z,44.88
2022-12-18T17:44:03.863Z,40.13
2022-12-18T17:46:33.038Z,40.45
2022-12-18T17:49:02.540Z,41.53
2022-12-18T17:51:30.192Z,38.75
2022-12-18T17:53:57.284Z,39.75
2022-12-18T17:56:25.035Z,37.72
2022-12-18T17:58:52.610Z,37.95
2022-12-18T18:01:23.202Z,142.68
2022-12-18T18:03:52.968Z,52.50
2022-12-18T18:06:21.019Z,42.13
2022-12-18T18:08:48.460Z,43.80
2022-12-18T18:11:36.900Z,44.17
2022-12-18T18:14:07.013Z,40.65
2022-12-18T18:16:43.949Z,43.80
2022-12-18T18:19:17.364Z,40.17
2022-12-18T18:21:46.600Z,45.10
2022-12-18T18:24:16.410Z,33.35
2022-12-18T18:26:43.362Z,32.78
2022-12-18T18:29:14.682Z,37.10
2022-12-18T18:31:42.092Z,42.35
2022-12-18T18:34:18.191Z,38.35
2022-12-18T18:36:46.319Z,17.30
2022-12-18T18:39:14.901Z,36.47
2022-12-18T18:41:42.199Z,35.47
2022-12-18T18:46:41.732Z,23.33
2022-12-18T18:49:08.765Z,41.10
2022-12-18T18:51:35.832Z,24.27
2022-12-18T18:54:03.054Z,38.95
2022-12-18T18:59:18.609Z,41.97
2022-12-18T19:01:45.703Z,36.05
2022-12-18T19:04:12.970Z,33.08
2022-12-18T19:06:40.278Z,32.72
2022-12-18T19:09:08.503Z,37.17
2022-12-18T19:12:04.848Z,33.70
2022-12-18T19:14:31.947Z,44.97
2022-12-18T19:16:58.795Z,28.42
2022-12-18T19:19:27.157Z,36.20
2022-12-18T19:21:54.092Z,38.38
2022-12-18T19:24:22.544Z,78.75
2022-12-18T19:26:49.545Z,32.15
2022-12-18T19:29:16.434Z,27.50
2022-12-18T19:31:43.416Z,29.13
2022-12-18T19:34:10.517Z,32.17
2022-12-18T19:36:39.918Z,37.03
2022-12-18T19:39:18.080Z,30.23
2022-12-18T19:41:47.022Z,31.38
2022-12-18T19:44:16.127Z,38.30
2022-12-18T19:46:44.312Z,15.73
2022-12-18T19:49:17.370Z,26.60
2022-12-18T19:51:44.903Z,31.40
2022-12-18T19:54:16.419Z,15.60
2022-12-18T19:56:43.910Z,27.73
2022-12-18T19:59:10.845Z,25.55
2022-12-18T20:01:37.830Z,32.10
2022-12-18T20:04:05.680Z,29.23
2022-12-18T20:06:36.240Z,30.08
2022-12-18T20:09:06.280Z,29.42
2022-12-18T20:11:35.361Z,32.58
2022-12-18T20:14:08.984Z,12.10
2022-12-18T20:16:36.026Z,29.25
2022-12-18T20:19:04.550Z,29.10
2022-12-18T20:21:31.903Z,28.00
2022-12-18T20:24:00.221Z,31.48
2022-12-18T20:26:27.641Z,22.60
2022-12-18T20:28:55.488Z,27.77
2022-12-18T20:31:23.023Z,24.63
2022-12-18T20:33:52.063Z,23.25
2022-12-18T20:36:24.502Z,7.82
2022-12-18T20:38:57.233Z,29.05
2022-12-18T20:41:27.695Z,25.83
2022-12-18T20:44:08.509Z,22.10
2022-12-18T20:46:50.483Z,17.15
2022-12-18T20:49:17.450Z,27.60
2022-12-18T20:51:44.336Z,21.58
2022-12-18T20:54:12.057Z,25.27
2022-12-18T20:56:39.058Z,27.77
2022-12-18T20:59:05.952Z,29.10
2022-12-18T21:01:33.088Z,30.83
2022-12-18T21:04:00.777Z,27.58
2022-12-18T21:06:28.865Z,14.82
2022-12-18T21:08:55.831Z,25.27
2022-12-18T21:11:41.340Z,23.85
2022-12-18T21:14:20.029Z,28.77
2022-12-18T21:16:47.793Z,13.25
2022-12-18T21:19:19.551Z,29.98
2022-12-18T21:21:47.444Z,29.23
2022-12-18T21:24:14.613Z,26.15
2022-12-18T21:26:46.131Z,35.97
2022-12-18T21:29:19.157Z,21.42
2022-12-18T21:34:19.587Z,7.97
2022-12-18T21:36:47.411Z,25.98
2022-12-18T21:39:15.490Z,22.20
2022-12-18T21:42:01.155Z,31.13
2022-12-18T21:44:28.320Z,27.52
2022-12-18T21:47:01.551Z,25.15
2022-12-18T21:49:33.580Z,32.80
2022-12-18T21:52:01.202Z,27.02
2022-12-18T21:54:29.107Z,29.35
2022-12-18T21:57:04.516Z,28.35
2022-12-18T21:59:34.726Z,142.25
2022-12-18T22:02:04.953Z,31.60
2022-12-18T22:04:31.947Z,20.13
2022-12-18T22:07:00.925Z,33.65
2022-12-18T22:09:28.170Z,32.15
2022-12-18T22:11:55.055Z,41.00
2022-12-18T22:14:23.192Z,17.08
2022-12-18T22:16:54.026Z,8.35
2022-12-18T22:19:21.625Z,30.05
2022-12-18T22:21:49.632Z,39.53
2022-12-18T22:24:17.782Z,40.25
2022-12-18T22:26:46.636Z,32.67
2022-12-18T22:29:40.595Z,17.70
2022-12-18T22:32:10.794Z,22.98
2022-12-18T22:34:39.547Z,20.50
2022-12-18T22:37:06.810Z,28.48
2022-12-18T22:39:33.785Z,31.73
2022-12-18T22:42:00.644Z,36.72
2022-12-18T22:44:28.399Z,38.88
2022-12-18T22:47:06.911Z,33.17
2022-12-18T22:49:35.606Z,34.72
2022-12-18T22:52:03.905Z,46.17
2022-12-18T22:54:31.091Z,43.28
2022-12-18T22:56:58.172Z,32.00
2022-12-18T22:59:25.131Z,40.90
2022-12-18T23:01:57.077Z,35.38
2022-12-18T23:04:35.924Z,30.88
2022-12-18T23:07:06.557Z,36.65
2022-12-18T23:09:33.980Z,36.85
2022-12-18T23:12:01.267Z,39.97
2022-12-18T23:14:29.152Z,36.15
2022-12-18T23:16:56.453Z,33.05
2022-12-18T23:19:24.034Z,34.78
2022-12-18T23:21:51.835Z,32.05
2022-12-18T23:24:21.384Z,39.30
2022-12-18T23:26:48.265Z,41.63
2022-12-18T23:29:15.143Z,45.38
2022-12-18T23:31:42.209Z,42.92
2022-12-18T23:34:13.104Z,27.50
2022-12-18T23:36:45.503Z,47.80
2022-12-18T23:39:15.637Z,43.45
2022-12-18T23:41:58.236Z,40.90
2022-12-18T23:44:25.308Z,44.42
2022-12-18T23:46:52.878Z,39.50
2022-12-18T23:49:19.901Z,47.60
2022-12-18T23:51:46.821Z,47.42
2022-12-18T23:54:13.682Z,50.67
2022-12-18T23:56:40.915Z,40.30
2022-12-18T23:59:08.012Z,54.13
